Vernon, Indiana
Current Conditions -  °F | °C
As of 6:50 AM on Saturday 25 Oct 2014 (Local Time) from KBAK Reporting Station
Broken Clouds Broken Clouds  
Wind Chill: 50°   Ceiling: 4300
Heat Index: 50°   Visibility: 7mi
Dew Point: 50°   Wind: 9mph
Humidity: 100%   Direction: 170°S
Pressure: 29.97"   Gusts: NA
Location:  38.98°N, 85.61°W
Report Text: KBAK 251050Z 17008KT 7SM SCT036 BKN043 BKN050 10/10 A2997
Loading
Personal Weather Stations






























Interactive Weather Map
Tropical Storm Tracking
New forecast layout! Learn more

10-Day Weather Forecast

Advertisements
Track Severe Weather on mobile